createdAt,value
2015-09-06T00:00:00.450Z,95796
2015-09-06T00:00:18.856Z,95797
2015-09-06T00:00:37.264Z,95802
2015-09-06T00:00:55.858Z,95797
2015-09-06T00:01:14.233Z,95806
2015-09-06T00:01:32.766Z,95803
2015-09-06T00:01:51.235Z,95803
2015-09-06T00:02:09.719Z,95801
2015-09-06T00:02:28.221Z,95795
2015-09-06T00:02:46.784Z,95801
2015-09-06T00:03:05.206Z,95801
2015-09-06T00:03:23.612Z,95801
2015-09-06T00:03:41.973Z,95801
2015-09-06T00:04:00.645Z,95806
2015-09-06T00:04:19.020Z,95814
2015-09-06T00:04:37.507Z,95809
2015-09-06T00:04:56.350Z,95808
2015-09-06T00:05:15.100Z,95808
2015-09-06T00:05:33.743Z,95802
2015-09-06T00:05:52.227Z,95810
2015-09-06T00:06:10.649Z,95808
2015-09-06T00:06:29.305Z,95808
2015-09-06T00:06:47.978Z,95805
2015-09-06T00:07:06.353Z,95803
2015-09-06T00:07:24.947Z,95803
2015-09-06T00:07:43.606Z,95806
2015-09-06T00:08:02.309Z,95803
2015-09-06T00:08:20.794Z,95806
2015-09-06T00:08:39.170Z,95808
2015-09-06T00:08:57.717Z,95801
2015-09-06T00:09:16.326Z,95795
2015-09-06T00:09:34.748Z,95804
2015-09-06T00:09:53.204Z,95803
2015-09-06T00:10:11.720Z,95803
2015-09-06T00:10:30.251Z,95801
2015-09-06T00:10:48.752Z,95809
2015-09-06T00:11:07.221Z,95806
2015-09-06T00:11:25.768Z,95801
2015-09-06T00:11:44.224Z,95812
2015-09-06T00:12:02.927Z,95798
2015-09-06T00:12:21.411Z,95806
2015-09-06T00:12:40.084Z,95809
2015-09-06T00:12:58.490Z,95809
2015-09-06T00:13:16.897Z,95804
2015-09-06T00:13:35.318Z,95806
2015-09-06T00:13:53.790Z,95807
2015-09-06T00:14:12.196Z,95804
2015-09-06T00:14:30.696Z,95807
2015-09-06T00:14:49.417Z,95810
2015-09-06T00:15:08.042Z,95799
2015-09-06T00:15:26.417Z,95790
2015-09-06T00:15:44.965Z,95807
2015-09-06T00:16:03.481Z,95807
2015-09-06T00:16:22.012Z,95802
2015-09-06T00:16:40.574Z,95796
2015-09-06T00:16:59.092Z,95799
2015-09-06T00:17:17.576Z,95804
2015-09-06T00:17:36.139Z,95801
2015-09-06T00:17:54.517Z,95807
2015-09-06T00:18:13.001Z,95810
2015-09-06T00:18:31.564Z,95799
2015-09-06T00:18:50.081Z,95804
2015-09-06T00:19:08.706Z,95801
2015-09-06T00:19:27.160Z,95802
2015-09-06T00:19:45.706Z,95804
2015-09-06T00:20:04.270Z,95807
2015-09-06T00:20:23.036Z,95809
2015-09-06T00:20:41.661Z,95801
2015-09-06T00:21:00.366Z,95801
2015-09-06T00:21:18.850Z,95809
2015-09-06T00:21:37.569Z,95799
2015-09-06T00:21:55.961Z,95807
2015-09-06T00:22:14.524Z,95799
2015-09-06T00:22:33.024Z,95813
2015-09-06T00:22:51.510Z,95799
2015-09-06T00:23:10.042Z,95804
2015-09-06T00:23:28.495Z,95804
2015-09-06T00:23:46.932Z,95796
2015-09-06T00:24:05.325Z,95796
2015-09-06T00:24:23.731Z,95797
2015-09-06T00:24:42.106Z,95802
2015-09-06T00:25:00.592Z,95803
2015-09-06T00:25:19.124Z,95803
2015-09-06T00:25:37.842Z,95805
2015-09-06T00:25:56.407Z,95799
2015-09-06T00:26:14.829Z,95799
2015-09-06T00:26:33.454Z,95799
2015-09-06T00:26:51.844Z,95796
2015-09-06T00:27:10.253Z,95801
2015-09-06T00:27:28.628Z,95793
2015-09-06T00:27:47.112Z,95796
2015-09-06T00:28:05.614Z,95802
2015-09-06T00:28:24.286Z,95804
2015-09-06T00:28:42.708Z,95799
2015-09-06T00:29:01.209Z,95801
2015-09-06T00:29:19.818Z,95801
2015-09-06T00:29:38.224Z,95804
2015-09-06T00:29:56.599Z,95800
2015-09-06T00:30:15.023Z,95797
2015-09-06T00:30:33.476Z,95803
2015-09-06T00:30:52.023Z,95804
2015-09-06T00:31:10.525Z,95801
2015-09-06T00:31:28.963Z,95803
2015-09-06T00:31:47.432Z,95800
2015-09-06T00:32:06.060Z,95803
2015-09-06T00:32:24.466Z,95795
2015-09-06T00:32:42.935Z,95803
2015-09-06T00:33:01.513Z,95798
2015-09-06T00:33:19.952Z,95795
2015-09-06T00:33:38.421Z,95809
2015-09-06T00:33:56.937Z,95806
2015-09-06T00:34:15.532Z,95806
2015-09-06T00:34:33.923Z,95804
2015-09-06T00:34:52.282Z,95804
2015-09-06T00:35:10.831Z,95796
2015-09-06T00:35:29.269Z,95807
2015-09-06T00:35:47.706Z,95798
2015-09-06T00:36:06.271Z,95803
2015-09-06T00:36:24.677Z,95798
2015-09-06T00:36:43.099Z,95801
2015-09-06T00:37:01.661Z,95801
2015-09-06T00:37:20.131Z,95806
2015-09-06T00:37:38.569Z,95800
2015-09-06T00:37:57.006Z,95797
2015-09-06T00:38:15.447Z,95797
2015-09-06T00:38:33.947Z,95797
2015-09-06T00:38:52.415Z,95795
2015-09-06T00:39:10.963Z,95809
2015-09-06T00:39:29.338Z,95800
2015-09-06T00:39:47.885Z,95806
2015-09-06T00:40:06.401Z,95803
2015-09-06T00:40:24.950Z,95797
2015-09-06T00:40:43.403Z,95798
2015-09-06T00:41:01.809Z,95798
2015-09-06T00:41:20.281Z,95800
2015-09-06T00:41:39.156Z,95795
2015-09-06T00:41:57.609Z,95800
2015-09-06T00:42:16.000Z,95806
2015-09-06T00:42:34.375Z,95803
2015-09-06T00:42:53.094Z,95803
2015-09-06T00:43:11.594Z,95797
2015-09-06T00:43:30.112Z,95797
2015-09-06T00:43:48.596Z,95800
2015-09-06T00:44:06.971Z,95792
2015-09-06T00:44:25.365Z,95798
2015-09-06T00:44:43.834Z,95806
2015-09-06T00:45:02.443Z,95798
2015-09-06T00:45:20.850Z,95795
2015-09-06T00:45:39.288Z,95792
2015-09-06T00:45:57.663Z,95800
2015-09-06T00:46:16.212Z,95794
2015-09-06T00:46:34.837Z,95794
2015-09-06T00:46:53.305Z,95801
2015-09-06T00:47:11.899Z,95798
2015-09-06T00:47:30.557Z,95797
2015-09-06T00:47:49.057Z,95802
2015-09-06T00:48:07.620Z,95797
2015-09-06T00:48:26.356Z,95805
2015-09-06T00:48:45.122Z,95797
2015-09-06T00:49:03.528Z,95803
2015-09-06T00:49:22.030Z,95803
2015-09-06T00:49:40.436Z,95808
2015-09-06T00:49:58.999Z,95803
2015-09-06T00:50:17.374Z,95800
2015-09-06T00:50:35.938Z,95795
2015-09-06T00:50:54.548Z,95795
2015-09-06T00:51:13.157Z,95803
2015-09-06T00:51:31.753Z,95806
2015-09-06T00:51:50.284Z,95803
2015-09-06T00:52:08.643Z,95800
2015-09-06T00:52:27.004Z,95802
2015-09-06T00:52:45.598Z,95797
2015-09-06T00:53:04.254Z,95791
2015-09-06T00:53:22.818Z,95797
2015-09-06T00:53:41.271Z,95800
2015-09-06T00:53:59.725Z,95812
2015-09-06T00:54:18.256Z,95803
2015-09-06T00:54:36.758Z,95795
2015-09-06T00:54:55.227Z,95792
2015-09-06T00:55:13.992Z,95795
2015-09-06T00:55:32.464Z,95798
2015-09-06T00:55:51.308Z,95787
2015-09-06T00:56:09.917Z,95788
2015-09-06T00:56:28.716Z,95790
2015-09-06T00:56:47.153Z,95796
2015-09-06T00:57:05.669Z,95788
2015-09-06T00:57:24.247Z,95796
2015-09-06T00:57:42.764Z,95804
2015-09-06T00:58:01.186Z,95793
2015-09-06T00:58:19.998Z,95804
2015-09-06T00:58:38.531Z,95801
2015-09-06T00:58:56.969Z,95789
2015-09-06T00:59:15.594Z,95807
2015-09-06T00:59:34.033Z,95804
2015-09-06T00:59:52.424Z,95798
2015-09-06T01:00:10.940Z,95806
2015-09-06T01:00:29.377Z,95803
2015-09-06T01:00:47.880Z,95809
2015-09-06T01:01:06.333Z,95803
2015-09-06T01:01:24.755Z,95803
2015-09-06T01:01:43.148Z,95797
2015-09-06T01:02:01.617Z,95806
2015-09-06T01:02:20.288Z,95808
2015-09-06T01:02:38.790Z,95811
2015-09-06T01:02:57.306Z,95797
2015-09-06T01:03:15.947Z,95800
2015-09-06T01:03:34.540Z,95803
2015-09-06T01:03:53.166Z,95803
2015-09-06T01:04:11.604Z,95805
2015-09-06T01:04:29.995Z,95799
2015-09-06T01:04:48.497Z,95799
2015-09-06T01:05:07.012Z,95805
2015-09-06T01:05:25.637Z,95800
2015-09-06T01:05:44.203Z,95808
2015-09-06T01:06:02.562Z,95794
2015-09-06T01:06:21.109Z,95797
2015-09-06T01:06:39.626Z,95809
2015-09-06T01:06:58.188Z,95798
2015-09-06T01:07:16.751Z,95812
2015-09-06T01:07:35.313Z,95789
2015-09-06T01:07:53.721Z,95803
2015-09-06T01:08:12.096Z,95795
2015-09-06T01:08:30.581Z,95797
2015-09-06T01:08:49.005Z,95800
2015-09-06T01:09:07.520Z,95797
2015-09-06T01:09:25.848Z,95803
2015-09-06T01:09:44.210Z,95808
2015-09-06T01:10:02.616Z,95800
2015-09-06T01:10:21.178Z,95794
2015-09-06T01:10:39.678Z,95796
2015-09-06T01:10:58.243Z,95794
2015-09-06T01:11:16.634Z,95803
2015-09-06T01:11:54.370Z,95801
2015-09-06T01:12:12.932Z,95803
2015-09-06T01:12:31.604Z,95803
2015-09-06T01:12:50.059Z,95802
2015-09-06T01:13:08.669Z,95802
2015-09-06T01:13:27.169Z,95791
2015-09-06T01:13:45.684Z,95803
2015-09-06T01:14:04.202Z,95789
2015-09-06T01:14:22.624Z,95797
2015-09-06T01:14:41.233Z,95803
2015-09-06T01:14:59.657Z,95789
2015-09-06T01:15:18.251Z,95797
2015-09-06T01:15:36.813Z,95791
2015-09-06T01:15:55.237Z,95792
2015-09-06T01:16:13.675Z,95803
2015-09-06T01:16:32.190Z,95806
2015-09-06T01:16:50.909Z,95800
2015-09-06T01:17:09.286Z,95797
2015-09-06T01:17:27.677Z,95802
2015-09-06T01:17:46.317Z,95802
2015-09-06T01:18:04.851Z,95799
2015-09-06T01:18:23.226Z,95797
2015-09-06T01:18:41.710Z,95797
2015-09-06T01:19:00.087Z,95800
2015-09-06T01:19:18.603Z,95791
2015-09-06T01:19:36.993Z,95799
2015-09-06T01:19:55.446Z,95794
2015-09-06T01:20:13.870Z,95797
2015-09-06T01:20:32.261Z,95797
2015-09-06T01:20:50.652Z,95800
2015-09-06T01:21:09.169Z,95809
2015-09-06T01:21:27.591Z,95795
2015-09-06T01:21:46.247Z,95803
2015-09-06T01:22:04.968Z,95803
2015-09-06T01:22:23.343Z,95802
2015-09-06T01:22:42.062Z,95802
2015-09-06T01:23:00.736Z,95797
2015-09-06T01:23:19.158Z,95803
2015-09-06T01:23:37.689Z,95805
2015-09-06T01:23:56.423Z,95797
2015-09-06T01:24:14.956Z,95809
2015-09-06T01:24:33.613Z,95809
2015-09-06T01:24:51.972Z,95806
2015-09-06T01:25:10.427Z,95816
2015-09-06T01:25:29.037Z,95808
2015-09-06T01:25:47.490Z,95811
2015-09-06T01:26:05.975Z,95813
2015-09-06T01:26:24.522Z,95818
2015-09-06T01:26:42.897Z,95802
2015-09-06T01:27:01.256Z,95811
2015-09-06T01:27:19.680Z,95808
2015-09-06T01:27:38.305Z,95811
2015-09-06T01:27:56.868Z,95814
2015-09-06T01:28:15.277Z,95806
2015-09-06T01:28:33.683Z,95808
2015-09-06T01:28:52.168Z,95806
2015-09-06T01:29:10.762Z,95805
2015-09-06T01:29:29.200Z,95802
2015-09-06T01:29:47.700Z,95803
2015-09-06T01:30:06.231Z,95808
2015-09-06T01:30:24.842Z,95808
2015-09-06T01:30:43.452Z,95808
2015-09-06T01:31:02.077Z,95809
2015-09-06T01:31:20.688Z,95812
2015-09-06T01:31:39.063Z,95815
2015-09-06T01:31:57.469Z,95815
2015-09-06T01:32:15.956Z,95815
2015-09-06T01:32:34.331Z,95817
2015-09-06T01:32:52.768Z,95809
2015-09-06T01:33:11.331Z,95809
2015-09-06T01:33:29.692Z,95809
2015-09-06T01:33:48.083Z,95815
2015-09-06T01:34:06.536Z,95809
2015-09-06T01:34:24.929Z,95807
2015-09-06T01:34:43.507Z,95818
2015-09-06T01:35:01.913Z,95812
2015-09-06T01:35:20.587Z,95809
2015-09-06T01:35:38.993Z,95805
2015-09-06T01:35:57.509Z,95813
2015-09-06T01:36:16.040Z,95813
2015-09-06T01:36:34.401Z,95810
2015-09-06T01:36:52.808Z,95808
2015-09-06T01:37:11.245Z,95810
2015-09-06T01:37:29.575Z,95807
2015-09-06T01:37:48.106Z,95813
2015-09-06T01:38:06.763Z,95810
2015-09-06T01:38:25.265Z,95815
2015-09-06T01:38:43.562Z,95807
2015-09-06T01:39:02.046Z,95804
2015-09-06T01:39:20.579Z,95818
2015-09-06T01:39:39.001Z,95813
2015-09-06T01:39:57.595Z,95810
2015-09-06T01:40:16.048Z,95821
2015-09-06T01:40:34.659Z,95815
2015-09-06T01:40:53.034Z,95809
2015-09-06T01:41:11.409Z,95818
2015-09-06T01:41:29.849Z,95818
2015-09-06T01:41:48.208Z,95815
2015-09-06T01:42:06.724Z,95810
2015-09-06T01:42:25.351Z,95813
2015-09-06T01:42:43.882Z,95810
2015-09-06T01:43:02.398Z,95818
2015-09-06T01:43:20.945Z,95810
2015-09-06T01:43:39.368Z,95824
2015-09-06T01:43:57.759Z,95818
2015-09-06T01:44:16.181Z,95819
2015-09-06T01:44:34.792Z,95813
2015-09-06T01:44:53.214Z,95805
2015-09-06T01:45:11.730Z,95813
2015-09-06T01:45:30.201Z,95813
2015-09-06T01:45:48.591Z,95808
2015-09-06T01:46:06.951Z,95807
2015-09-06T01:46:25.326Z,95807
2015-09-06T01:46:43.920Z,95809
2015-09-06T01:47:02.358Z,95803
2015-09-06T01:47:20.248Z,95801
2015-09-06T01:47:38.923Z,95806
2015-09-06T01:47:56.814Z,95809
2015-09-06T01:48:15.205Z,95807
2015-09-06T01:48:33.549Z,95810
2015-09-06T01:48:51.924Z,95799
2015-09-06T01:49:10.862Z,95804
2015-09-06T01:49:29.221Z,95799
2015-09-06T01:49:47.646Z,95804
2015-09-06T01:50:06.365Z,95801
2015-09-06T01:50:24.771Z,95802
2015-09-06T01:50:43.350Z,95816
2015-09-06T01:51:02.053Z,95810
2015-09-06T01:51:20.413Z,95799
2015-09-06T01:51:38.774Z,95805
2015-09-06T01:51:57.180Z,95803
2015-09-06T01:52:15.587Z,95806
2015-09-06T01:52:34.118Z,95810
2015-09-06T01:52:52.667Z,95807
2015-09-06T01:53:11.385Z,95808
2015-09-06T01:53:29.776Z,95814
2015-09-06T01:53:48.184Z,95805
2015-09-06T01:54:06.731Z,95802
2015-09-06T01:54:25.216Z,95805
2015-09-06T01:54:43.609Z,95805
2015-09-06T01:55:02.469Z,95799
2015-09-06T01:55:20.969Z,95810
2015-09-06T01:55:39.485Z,95810
2015-09-06T01:55:57.938Z,95812
2015-09-06T01:56:16.329Z,95804
2015-09-06T01:56:35.766Z,95805
2015-09-06T01:56:54.472Z,95815
2015-09-06T01:57:12.862Z,95810
2015-09-06T01:57:31.331Z,95810
2015-09-06T01:57:49.942Z,95810
2015-09-06T01:58:08.364Z,95799
2015-09-06T01:58:26.817Z,95819
2015-09-06T01:58:45.194Z,95802
2015-09-06T01:59:03.710Z,95796
2015-09-06T01:59:22.241Z,95793
2015-09-06T01:59:40.679Z,95805
2015-09-06T01:59:59.478Z,95815
2015-09-06T02:00:17.946Z,95796
2015-09-06T02:00:36.446Z,95807
2015-09-06T02:00:54.823Z,95805
2015-09-06T02:01:13.511Z,95808
2015-09-06T02:01:32.214Z,95802
2015-09-06T02:01:50.764Z,95788
2015-09-06T02:02:09.170Z,95818
2015-09-06T02:02:27.686Z,95804
2015-09-06T02:02:46.045Z,95793
2015-09-06T02:03:04.624Z,95802
2015-09-06T02:03:23.218Z,95807
2015-09-06T02:03:41.827Z,95799
2015-09-06T02:04:00.392Z,95804
2015-09-06T02:04:18.907Z,95807
2015-09-06T02:04:37.345Z,95801
2015-09-06T02:04:55.816Z,95801
2015-09-06T02:05:14.269Z,95804
2015-09-06T02:05:32.738Z,95807
2015-09-06T02:05:51.490Z,95795
2015-09-06T02:06:10.005Z,95801
2015-09-06T02:06:28.599Z,95804
2015-09-06T02:06:46.458Z,95799
2015-09-06T02:07:04.851Z,95804
2015-09-06T02:07:23.288Z,95798
2015-09-06T02:07:41.773Z,95798
2015-09-06T02:08:00.259Z,95795
2015-09-06T02:08:18.681Z,95796
2015-09-06T02:08:37.259Z,95804
2015-09-06T02:08:55.667Z,95809
2015-09-06T02:09:14.277Z,95795
2015-09-06T02:09:32.964Z,95796
2015-09-06T02:09:51.527Z,95804
2015-09-06T02:10:10.122Z,95804
2015-09-06T02:10:28.512Z,95798
2015-09-06T02:10:46.903Z,95799
2015-09-06T02:11:05.546Z,95802
2015-09-06T02:11:23.921Z,95808
2015-09-06T02:11:42.500Z,95800
2015-09-06T02:12:01.220Z,95805
2015-09-06T02:12:19.892Z,95794
2015-09-06T02:12:38.361Z,95799
2015-09-06T02:12:56.845Z,95796
2015-09-06T02:13:15.316Z,95802
2015-09-06T02:13:33.754Z,95799
2015-09-06T02:13:52.144Z,95808
2015-09-06T02:14:10.631Z,95799
2015-09-06T02:14:29.021Z,95811
2015-09-06T02:14:47.537Z,95794
2015-09-06T02:15:05.961Z,95802
2015-09-06T02:15:24.586Z,95805
2015-09-06T02:15:43.117Z,95805
2015-09-06T02:16:01.523Z,95799
2015-09-06T02:16:19.946Z,95788
2015-09-06T02:16:38.446Z,95785
2015-09-06T02:16:56.962Z,95799
2015-09-06T02:17:15.339Z,95802
2015-09-06T02:17:34.089Z,95793
2015-09-06T02:17:52.495Z,95807
2015-09-06T02:18:11.059Z,95791
2015-09-06T02:18:29.528Z,95793
2015-09-06T02:18:47.919Z,95801
2015-09-06T02:19:06.528Z,95799
2015-09-06T02:19:24.999Z,95798
2015-09-06T02:19:43.655Z,95801
2015-09-06T02:20:02.046Z,95807
2015-09-06T02:20:20.408Z,95801
2015-09-06T02:20:38.955Z,95804
2015-09-06T02:20:57.689Z,95796
2015-09-06T02:21:16.269Z,95799
2015-09-06T02:21:34.878Z,95808
2015-09-06T02:21:53.362Z,95802
2015-09-06T02:22:11.862Z,95802
2015-09-06T02:22:30.412Z,95810
2015-09-06T02:22:49.193Z,95807
2015-09-06T02:23:07.740Z,95813
2015-09-06T02:23:26.273Z,95807
2015-09-06T02:23:44.835Z,95807
2015-09-06T02:24:03.476Z,95797
2015-09-06T02:24:22.182Z,95808
2015-09-06T02:24:40.619Z,95805
2015-09-06T02:25:06.057Z,95802
2015-09-06T02:25:24.495Z,95805
2015-09-06T02:25:43.292Z,95802
2015-09-06T02:26:01.698Z,95802
2015-09-06T02:26:20.280Z,95810
2015-09-06T02:26:38.858Z,95816
2015-09-06T02:26:57.623Z,95816
2015-09-06T02:27:15.998Z,95810
2015-09-06T02:27:34.390Z,95805
2015-09-06T02:27:53.046Z,95819
2015-09-06T02:28:11.421Z,95815
2015-09-06T02:28:30.267Z,95816
2015-09-06T02:28:48.642Z,95824
2015-09-06T02:29:07.142Z,95812
2015-09-06T02:29:25.644Z,95809
2015-09-06T02:29:44.300Z,95807
2015-09-06T02:30:02.800Z,95817
2015-09-06T02:30:21.191Z,95820
2015-09-06T02:30:39.568Z,95809
2015-09-06T02:30:58.130Z,95811
2015-09-06T02:31:16.615Z,95801
2015-09-06T02:31:35.163Z,95817
2015-09-06T02:31:53.631Z,95809
2015-09-06T02:32:12.069Z,95818
2015-09-06T02:32:30.524Z,95815
2015-09-06T02:32:48.961Z,95812
2015-09-06T02:33:07.399Z,95818
2015-09-06T02:33:26.165Z,95813
2015-09-06T02:33:44.574Z,95807
2015-09-06T02:34:02.996Z,95807
2015-09-06T02:34:21.402Z,95810
2015-09-06T02:34:39.920Z,95810
2015-09-06T02:34:58.326Z,95810
2015-09-06T02:35:16.998Z,95813
2015-09-06T02:35:35.686Z,95813
2015-09-06T02:35:54.280Z,95813
2015-09-06T02:36:12.796Z,95812
2015-09-06T02:36:31.483Z,95818
2015-09-06T02:36:50.079Z,95826
2015-09-06T02:37:08.641Z,95809
2015-09-06T02:37:27.048Z,95812
2015-09-06T02:37:45.519Z,95814
2015-09-06T02:38:03.894Z,95812
2015-09-06T02:38:22.629Z,95817
2015-09-06T02:38:41.286Z,95815
2015-09-06T02:38:59.661Z,95804
2015-09-06T02:39:18.052Z,95818
2015-09-06T02:39:36.539Z,95812
2015-09-06T02:39:55.008Z,95807
2015-09-06T02:40:13.633Z,95815
2015-09-06T02:40:31.992Z,95813
2015-09-06T02:40:50.432Z,95815
2015-09-06T02:41:08.853Z,95810
2015-09-06T02:41:27.478Z,95804
2015-09-06T02:41:46.120Z,95812
2015-09-06T02:42:04.745Z,95818
2015-09-06T02:42:23.214Z,95815
2015-09-06T02:42:41.622Z,95817
2015-09-06T02:43:00.122Z,95814
2015-09-06T02:43:18.638Z,95806
2015-09-06T02:43:37.106Z,95803
2015-09-06T02:43:55.641Z,95820
2015-09-06T02:44:14.109Z,95809
2015-09-06T02:44:32.844Z,95806
2015-09-06T02:44:51.314Z,95802
2015-09-06T02:45:09.689Z,95816
2015-09-06T02:45:28.407Z,95816
2015-09-06T02:45:46.942Z,95808
2015-09-06T02:46:05.426Z,95802
2015-09-06T02:46:24.082Z,95808
2015-09-06T02:46:42.630Z,95808
2015-09-06T02:47:01.318Z,95814
2015-09-06T02:47:19.739Z,95814
2015-09-06T02:47:38.208Z,95810
2015-09-06T02:47:56.899Z,95818
2015-09-06T02:48:15.289Z,95815
2015-09-06T02:48:33.789Z,95816
2015-09-06T02:48:52.259Z,95816
2015-09-06T02:49:10.947Z,95813
2015-09-06T02:49:29.337Z,95823
2015-09-06T02:49:47.731Z,95812
2015-09-06T02:50:06.028Z,95815
2015-09-06T02:50:24.278Z,95815
2015-09-06T02:50:42.684Z,95816
2015-09-06T02:51:01.186Z,95815
2015-09-06T02:51:19.733Z,95815
2015-09-06T02:51:38.186Z,95821
2015-09-06T02:51:56.765Z,95818
2015-09-06T02:52:15.203Z,95817
2015-09-06T02:52:33.953Z,95820
2015-09-06T02:52:52.376Z,95809
2015-09-06T02:53:10.830Z,95812
2015-09-06T02:53:29.361Z,95815
2015-09-06T02:53:47.798Z,95812
2015-09-06T02:54:06.269Z,95812
2015-09-06T02:54:24.816Z,95821
2015-09-06T02:54:43.285Z,95807
2015-09-06T02:55:01.740Z,95810
2015-09-06T02:55:20.115Z,95811
2015-09-06T02:55:38.677Z,95819
2015-09-06T02:55:57.179Z,95808
2015-09-06T02:56:15.570Z,95811
2015-09-06T02:56:33.929Z,95814
2015-09-06T02:56:52.539Z,95808
2015-09-06T02:57:11.228Z,95822
2015-09-06T02:57:29.603Z,95807
2015-09-06T02:57:48.166Z,95813
2015-09-06T02:58:06.714Z,95816
2015-09-06T02:58:25.151Z,95808
2015-09-06T02:58:43.510Z,95805
2015-09-06T02:59:01.934Z,95811
2015-09-06T02:59:20.512Z,95819
2015-09-06T02:59:38.950Z,95816
2015-09-06T02:59:57.653Z,95812
2015-09-06T03:00:16.156Z,95804
2015-09-06T03:00:34.640Z,95813
2015-09-06T03:00:53.140Z,95810
2015-09-06T03:01:11.533Z,95816
2015-09-06T03:01:29.892Z,95813
2015-09-06T03:01:48.455Z,95805
2015-09-06T03:02:06.848Z,95815
2015-09-06T03:02:25.316Z,95810
2015-09-06T03:02:43.754Z,95821
2015-09-06T03:03:02.160Z,95805
2015-09-06T03:03:20.787Z,95810
2015-09-06T03:03:39.240Z,95827
2015-09-06T03:03:57.756Z,95808
2015-09-06T03:04:16.272Z,95811
2015-09-06T03:04:34.741Z,95819
2015-09-06T03:04:53.257Z,95808
2015-09-06T03:05:11.838Z,95816
2015-09-06T03:05:30.244Z,95812
2015-09-06T03:05:48.744Z,95817
2015-09-06T03:06:07.166Z,95812
2015-09-06T03:06:25.731Z,95820
2015-09-06T03:06:44.137Z,95817
2015-09-06T03:07:02.652Z,95817
2015-09-06T03:07:21.200Z,95814
2015-09-06T03:07:39.732Z,95814
2015-09-06T03:07:58.122Z,95817
2015-09-06T03:08:16.499Z,95822
2015-09-06T03:08:34.937Z,95820
2015-09-06T03:08:53.499Z,95814
2015-09-06T03:09:11.908Z,95814
2015-09-06T03:09:30.330Z,95820
2015-09-06T03:09:48.815Z,95814
2015-09-06T03:10:07.408Z,95820
2015-09-06T03:10:26.066Z,95811
2015-09-06T03:10:44.503Z,95824
2015-09-06T03:11:02.972Z,95820
2015-09-06T03:11:21.615Z,95817
2015-09-06T03:11:40.005Z,95820
2015-09-06T03:11:58.443Z,95825
2015-09-06T03:12:16.804Z,95826
2015-09-06T03:12:35.179Z,95818
2015-09-06T03:12:53.851Z,95821
2015-09-06T03:13:12.226Z,95818
2015-09-06T03:13:30.948Z,95824
2015-09-06T03:13:49.370Z,95810
2015-09-06T03:14:07.885Z,95810
2015-09-06T03:14:26.324Z,95824
2015-09-06T03:14:44.714Z,95819
2015-09-06T03:15:03.246Z,95821
2015-09-06T03:15:41.030Z,95817
2015-09-06T03:15:59.670Z,95820
2015-09-06T03:16:18.311Z,95820
2015-09-06T03:16:36.765Z,95825
2015-09-06T03:16:55.500Z,95822
2015-09-06T03:17:13.937Z,95819
2015-09-06T03:17:32.726Z,95817
2015-09-06T03:17:51.476Z,95818
2015-09-06T03:18:10.101Z,95817
2015-09-06T03:18:28.612Z,95823
2015-09-06T03:18:47.143Z,95814
2015-09-06T03:19:05.674Z,95828
2015-09-06T03:19:24.096Z,95817
2015-09-06T03:19:42.637Z,95820
2015-09-06T03:20:01.137Z,95820
2015-09-06T03:20:19.965Z,95820
2015-09-06T03:20:38.491Z,95817
2015-09-06T03:20:57.209Z,95820
2015-09-06T03:21:15.584Z,95826
2015-09-06T03:21:34.142Z,95832
2015-09-06T03:21:52.548Z,95819
2015-09-06T03:22:11.064Z,95822
2015-09-06T03:22:29.579Z,95827
2015-09-06T03:22:48.048Z,95827
2015-09-06T03:23:06.595Z,95819
2015-09-06T03:23:25.095Z,95827
2015-09-06T03:23:43.674Z,95824
2015-09-06T03:24:02.221Z,95822
2015-09-06T03:24:20.690Z,95830
2015-09-06T03:24:39.190Z,95830
2015-09-06T03:24:57.721Z,95830
2015-09-06T03:25:16.362Z,95824
2015-09-06T03:25:34.956Z,95822
2015-09-06T03:25:53.769Z,95822
2015-09-06T03:26:12.190Z,95824
2015-09-06T03:26:30.644Z,95829
2015-09-06T03:26:49.065Z,95829
2015-09-06T03:27:07.627Z,95823
2015-09-06T03:27:26.284Z,95832
2015-09-06T03:27:44.650Z,95832
2015-09-06T03:28:03.150Z,95829
2015-09-06T03:28:21.744Z,95829
2015-09-06T03:28:40.251Z,95827
2015-09-06T03:28:58.782Z,95832
2015-09-06T03:29:17.454Z,95824
2015-09-06T03:29:36.016Z,95835
2015-09-06T03:29:54.461Z,95826
2015-09-06T03:30:12.867Z,95834
2015-09-06T03:30:31.430Z,95823
2015-09-06T03:30:49.812Z,95826
2015-09-06T03:31:08.233Z,95821
2015-09-06T03:31:26.733Z,95813
2015-09-06T03:31:45.224Z,95824
2015-09-06T03:32:03.677Z,95830
2015-09-06T03:32:22.271Z,95827
2015-09-06T03:32:40.864Z,95827
2015-09-06T03:32:59.353Z,95830
2015-09-06T03:33:17.728Z,95827
2015-09-06T03:33:36.165Z,95829
2015-09-06T03:33:54.654Z,95823
2015-09-06T03:34:13.435Z,95834
2015-09-06T03:34:31.794Z,95825
2015-09-06T03:34:50.205Z,95828
2015-09-06T03:35:08.580Z,95823
2015-09-06T03:35:27.142Z,95833
2015-09-06T03:35:45.626Z,95828
2015-09-06T03:36:04.037Z,95836
2015-09-06T03:36:22.380Z,95834
2015-09-06T03:36:40.912Z,95829
2015-09-06T03:36:59.430Z,95835
2015-09-06T03:37:17.883Z,95832
2015-09-06T03:37:36.243Z,95834
2015-09-06T03:37:54.636Z,95826
2015-09-06T03:38:13.011Z,95831
2015-09-06T03:38:31.418Z,95825
2015-09-06T03:38:49.949Z,95825
2015-09-06T03:39:08.405Z,95825
2015-09-06T03:39:26.796Z,95830
2015-09-06T03:39:45.327Z,95833
2015-09-06T03:40:03.799Z,95830
2015-09-06T03:40:22.158Z,95825
2015-09-06T03:40:40.658Z,95825
2015-09-06T03:40:59.083Z,95837
2015-09-06T03:41:17.442Z,95834
2015-09-06T03:41:35.927Z,95829
2015-09-06T03:41:54.380Z,95823
2015-09-06T03:42:12.757Z,95831
2015-09-06T03:42:31.116Z,95831
2015-09-06T03:42:49.507Z,95834
2015-09-06T03:43:07.962Z,95837
2015-09-06T03:43:26.509Z,95828
2015-09-06T03:43:44.728Z,95831
2015-09-06T03:44:03.151Z,95831
2015-09-06T03:44:21.573Z,95832
2015-09-06T03:44:40.245Z,95832
2015-09-06T03:44:58.810Z,95829
2015-09-06T03:45:17.216Z,95838
2015-09-06T03:45:35.669Z,95846
2015-09-06T03:45:54.075Z,95837
2015-09-06T03:46:12.592Z,95837
2015-09-06T03:46:31.014Z,95831
2015-09-06T03:46:49.420Z,95840
2015-09-06T03:47:07.828Z,95828
2015-09-06T03:47:26.485Z,95840
2015-09-06T03:47:44.969Z,95834
2015-09-06T03:48:03.362Z,95836
2015-09-06T03:48:21.721Z,95836
2015-09-06T03:48:40.080Z,95836
2015-09-06T03:48:58.565Z,95839
2015-09-06T03:49:16.989Z,95842
2015-09-06T03:49:35.364Z,95842
2015-09-06T03:49:53.785Z,95836
2015-09-06T03:50:12.209Z,95842
2015-09-06T03:50:30.662Z,95836
2015-09-06T03:50:49.397Z,95831
2015-09-06T03:51:07.883Z,95839
2015-09-06T03:51:26.524Z,95842
2015-09-06T03:51:45.024Z,95846
2015-09-06T03:52:03.477Z,95840
2015-09-06T03:52:22.010Z,95838
2015-09-06T03:52:40.463Z,95833
2015-09-06T03:52:58.838Z,95844
2015-09-06T03:53:17.356Z,95844
2015-09-06T03:53:35.762Z,95841
2015-09-06T03:53:54.231Z,95838
2015-09-06T03:54:12.639Z,95843
2015-09-06T03:54:31.092Z,95838
2015-09-06T03:54:49.639Z,95840
2015-09-06T03:55:08.186Z,95840
2015-09-06T03:55:26.626Z,95849
2015-09-06T03:55:45.016Z,95841
2015-09-06T03:56:03.626Z,95838
2015-09-06T03:56:22.332Z,95833
2015-09-06T03:56:40.816Z,95849
2015-09-06T03:56:59.316Z,95849
2015-09-06T03:57:17.739Z,95841
2015-09-06T03:57:36.161Z,95849
2015-09-06T03:57:54.692Z,95838
2015-09-06T03:58:13.176Z,95838
2015-09-06T03:58:31.803Z,95844
2015-09-06T03:58:50.178Z,95847